createdAt,value
2023-04-23T00:00:19.376Z,100736.92
2023-04-23T00:02:51.147Z,100740.68
2023-04-23T00:05:20.358Z,100744.30
2023-04-23T00:07:49.114Z,100746.11
2023-04-23T00:10:17.286Z,100754.17
2023-04-23T00:12:46.100Z,100753.98
2023-04-23T00:15:15.110Z,100760.75
2023-04-23T00:17:43.510Z,100764.44
2023-04-23T00:20:11.969Z,100762.77
2023-04-23T00:22:41.732Z,100765.47
2023-04-23T00:25:10.587Z,100770.53
2023-04-23T00:27:38.947Z,100772.79
2023-04-23T00:30:09.624Z,100774.81
2023-04-23T00:32:38.398Z,100778.80
2023-04-23T00:35:07.326Z,100776.36
2023-04-23T00:37:35.570Z,100775.64
2023-04-23T00:40:04.900Z,100779.61
2023-04-23T00:42:33.796Z,100779.64
2023-04-23T00:45:02.529Z,100781.44
2023-04-23T00:47:31.504Z,100780.36
2023-04-23T00:50:01.395Z,100776.92
2023-04-23T00:52:30.070Z,100778.08
2023-04-23T00:54:59.024Z,100780.23
2023-04-23T00:57:27.836Z,100779.13
2023-04-23T00:59:58.529Z,100780.45
2023-04-23T01:02:28.284Z,100778.48
2023-04-23T01:04:56.546Z,100775.81
2023-04-23T01:07:26.375Z,100777.21
2023-04-23T01:09:54.537Z,100779.29
2023-04-23T01:12:23.129Z,100780.77
2023-04-23T01:14:51.595Z,100785.48
2023-04-23T01:17:19.870Z,100783.95
2023-04-23T01:19:48.294Z,100780.08
2023-04-23T01:22:17.141Z,100775.76
2023-04-23T01:24:45.685Z,100779.14
2023-04-23T01:27:13.824Z,100776.60
2023-04-23T01:29:42.025Z,100779.86
2023-04-23T01:32:10.250Z,100779.23
2023-04-23T01:34:40.252Z,100783.02
2023-04-23T01:37:09.530Z,100782.92
2023-04-23T01:39:37.747Z,100780.86
2023-04-23T01:42:07.805Z,100780.60
2023-04-23T01:44:36.302Z,100780.00
2023-04-23T01:47:06.843Z,100782.67
2023-04-23T01:49:35.549Z,100777.88
2023-04-23T01:52:04.416Z,100781.77
2023-04-23T01:54:32.595Z,100786.03
2023-04-23T01:57:01.762Z,100784.92
2023-04-23T01:59:30.065Z,100781.64
2023-04-23T02:01:58.469Z,100787.23
2023-04-23T02:04:26.891Z,100786.86
2023-04-23T02:06:56.112Z,100786.98
2023-04-23T02:09:24.399Z,100785.89
2023-04-23T02:11:52.558Z,100787.73
2023-04-23T02:14:21.022Z,100787.64
2023-04-23T02:16:49.954Z,100789.51
2023-04-23T02:19:18.833Z,100792.72
2023-04-23T02:21:47.071Z,100790.75
2023-04-23T02:24:15.271Z,100790.77
2023-04-23T02:26:44.143Z,100790.75
2023-04-23T02:29:12.329Z,100789.30
2023-04-23T02:31:40.816Z,100790.31
2023-04-23T02:34:12.057Z,100787.05
2023-04-23T02:36:40.405Z,100790.97
2023-04-23T02:39:08.781Z,100788.77
2023-04-23T02:41:38.168Z,100789.13
2023-04-23T02:44:08.161Z,100796.59
2023-04-23T02:46:37.819Z,100796.73
2023-04-23T02:49:07.015Z,100799.27
2023-04-23T02:51:35.400Z,100800.65
2023-04-23T02:54:04.288Z,100801.92
2023-04-23T02:56:32.656Z,100804.27
2023-04-23T02:59:01.879Z,100805.02
2023-04-23T03:01:30.526Z,100802.66
2023-04-23T03:03:59.133Z,100805.88
2023-04-23T03:06:27.638Z,100811.84
2023-04-23T03:08:56.438Z,100811.41
2023-04-23T03:11:24.712Z,100814.42
2023-04-23T03:13:53.138Z,100815.29
2023-04-23T03:16:21.397Z,100818.98
2023-04-23T03:18:50.046Z,100819.61
2023-04-23T03:21:18.322Z,100821.29
2023-04-23T03:23:46.624Z,100821.95
2023-04-23T03:26:14.938Z,100824.69
2023-04-23T03:28:43.527Z,100830.27
2023-04-23T03:31:12.139Z,100826.59
2023-04-23T03:33:40.514Z,100826.23
2023-04-23T03:36:08.791Z,100828.19
2023-04-23T03:38:37.167Z,100825.91
2023-04-23T03:41:06.258Z,100828.36
2023-04-23T03:43:34.535Z,100831.20
2023-04-23T03:46:17.308Z,100839.63
2023-04-23T03:48:45.641Z,100842.66
2023-04-23T03:51:19.102Z,100843.49
2023-04-23T03:53:49.753Z,100845.64
2023-04-23T03:56:36.888Z,100852.27
2023-04-23T03:59:13.571Z,100854.31
2023-04-23T04:01:42.950Z,100857.91
2023-04-23T04:04:11.521Z,100858.15
2023-04-23T04:06:40.920Z,100856.83
2023-04-23T04:09:09.397Z,100857.36
2023-04-23T04:11:37.890Z,100861.55
2023-04-23T04:14:06.246Z,100869.16
2023-04-23T04:16:34.446Z,100875.48
2023-04-23T04:19:03.058Z,100874.81
2023-04-23T04:21:32.537Z,100876.63
2023-04-23T04:24:04.957Z,100882.36
2023-04-23T04:26:34.609Z,100885.06
2023-04-23T04:29:02.945Z,100891.40
2023-04-23T04:31:32.491Z,100891.95
2023-04-23T04:34:01.005Z,100896.96
2023-04-23T04:36:30.093Z,100900.79
2023-04-23T04:38:58.889Z,100903.96
2023-04-23T04:41:27.847Z,100903.38
2023-04-23T04:43:56.184Z,100909.73
2023-04-23T04:46:29.319Z,100914.73
2023-04-23T04:48:57.792Z,100918.41
2023-04-23T04:51:27.236Z,100921.77
2023-04-23T04:53:55.959Z,100926.73
2023-04-23T04:56:25.990Z,100930.10
2023-04-23T04:58:54.358Z,100928.80
2023-04-23T05:01:25.106Z,100934.33
2023-04-23T05:03:53.921Z,100936.09
2023-04-23T05:06:22.447Z,100942.04
2023-04-23T05:08:52.757Z,100937.90
2023-04-23T05:11:21.150Z,100939.30
2023-04-23T05:13:49.701Z,100941.52
2023-04-23T05:16:18.480Z,100943.71
2023-04-23T05:18:46.912Z,100938.83
2023-04-23T05:21:15.728Z,100938.70
2023-04-23T05:23:44.210Z,100940.48
2023-04-23T05:26:12.521Z,100942.16
2023-04-23T05:28:43.315Z,100946.32
2023-04-23T05:31:12.077Z,100950.06
2023-04-23T05:33:49.376Z,100950.18
2023-04-23T05:36:18.915Z,100943.54
2023-04-23T05:38:47.366Z,100947.98
2023-04-23T05:41:16.178Z,100952.12
2023-04-23T05:43:46.149Z,100956.91
2023-04-23T05:46:15.652Z,100961.64
2023-04-23T05:48:44.003Z,100962.94
2023-04-23T05:51:13.158Z,100966.23
2023-04-23T05:53:48.157Z,100958.83
2023-04-23T05:56:38.161Z,100963.02
2023-04-23T05:59:06.521Z,100965.30
2023-04-23T06:01:36.455Z,100962.03
2023-04-23T06:04:05.093Z,100963.16
2023-04-23T06:06:34.367Z,100968.00
2023-04-23T06:09:02.657Z,100972.39
2023-04-23T06:11:32.494Z,100977.14
2023-04-23T06:14:01.334Z,100977.91
2023-04-23T06:16:30.590Z,100979.34
2023-04-23T06:18:59.252Z,100978.29
2023-04-23T06:21:28.020Z,100976.63
2023-04-23T06:23:57.420Z,100981.89
2023-04-23T06:26:26.752Z,100985.13
2023-04-23T06:28:56.840Z,100986.30
2023-04-23T06:31:31.199Z,100989.36
2023-04-23T06:33:59.713Z,100988.40
2023-04-23T06:36:32.603Z,100994.50
2023-04-23T06:39:01.886Z,101000.17
2023-04-23T06:41:30.667Z,100996.75
2023-04-23T06:44:10.023Z,101000.80
2023-04-23T06:46:43.016Z,100999.01
2023-04-23T06:49:11.384Z,101003.41
2023-04-23T06:51:40.424Z,101002.58
2023-04-23T06:54:09.048Z,101001.34
2023-04-23T06:56:37.967Z,101002.09
2023-04-23T06:59:10.507Z,101002.81
2023-04-23T07:01:46.877Z,101003.41
2023-04-23T07:04:16.130Z,101002.89
2023-04-23T07:06:44.526Z,101002.66
2023-04-23T07:09:13.159Z,101004.66
2023-04-23T07:11:41.653Z,101008.38
2023-04-23T07:14:10.569Z,101006.17
2023-04-23T07:16:40.926Z,101007.97
2023-04-23T07:19:10.523Z,101009.14
2023-04-23T07:21:44.402Z,101012.34
2023-04-23T07:24:17.146Z,101014.89
2023-04-23T07:26:49.099Z,101020.12
2023-04-23T07:29:18.597Z,101018.87
2023-04-23T07:31:52.145Z,101022.36
2023-04-23T07:34:20.553Z,101020.97
2023-04-23T07:36:49.197Z,101019.75
2023-04-23T07:44:08.292Z,101016.36
2023-04-23T07:46:37.033Z,101018.73
2023-04-23T07:49:05.921Z,101018.11
2023-04-23T07:51:36.336Z,101016.49
2023-04-23T07:54:04.941Z,101015.27
2023-04-23T07:56:38.603Z,101015.90
2023-04-23T07:59:07.072Z,101015.35
2023-04-23T08:01:36.119Z,101012.48
2023-04-23T08:04:04.785Z,101014.04
2023-04-23T08:06:36.001Z,101014.89
2023-04-23T08:09:07.495Z,101012.83
2023-04-23T08:11:36.216Z,101017.70
2023-04-23T08:14:06.994Z,101016.48
2023-04-23T08:16:38.037Z,101017.94
2023-04-23T08:19:07.319Z,101009.63
2023-04-23T08:21:37.544Z,101010.48
2023-04-23T08:24:08.284Z,101010.61
2023-04-23T08:26:36.808Z,101006.48
2023-04-23T08:29:06.311Z,101003.88
2023-04-23T08:31:34.529Z,101004.21
2023-04-23T08:34:03.785Z,101003.61
2023-04-23T08:36:32.801Z,101003.26
2023-04-23T08:39:02.082Z,100995.73
2023-04-23T08:41:39.925Z,100995.67
2023-04-23T08:44:17.728Z,100994.23
2023-04-23T08:46:46.057Z,100998.32
2023-04-23T08:49:17.830Z,100999.77
2023-04-23T08:51:55.796Z,101001.70
2023-04-23T08:54:28.864Z,100997.09
2023-04-23T08:57:01.084Z,100993.23
2023-04-23T08:59:34.347Z,100995.29
2023-04-23T09:02:10.202Z,100988.35
2023-04-23T09:04:39.257Z,100988.93
2023-04-23T09:07:11.759Z,100986.84
2023-04-23T09:09:41.544Z,100985.63
2023-04-23T09:12:10.251Z,100984.45
2023-04-23T09:14:38.630Z,100983.07
2023-04-23T09:17:07.901Z,100975.52
2023-04-23T09:19:37.389Z,100977.55
2023-04-23T09:22:05.625Z,100974.92
2023-04-23T09:24:34.464Z,100971.80
2023-04-23T09:27:04.112Z,100972.49
2023-04-23T09:29:32.346Z,100968.18
2023-04-23T09:32:07.753Z,100964.90
2023-04-23T09:34:40.368Z,100962.30
2023-04-23T09:37:10.595Z,100959.91
2023-04-23T09:39:40.740Z,100957.58
2023-04-23T09:42:11.441Z,100960.18
2023-04-23T09:44:40.442Z,100962.19
2023-04-23T09:47:14.688Z,100957.58
2023-04-23T09:49:48.573Z,100951.94
2023-04-23T09:52:17.218Z,100948.73
2023-04-23T09:54:46.899Z,100946.62
2023-04-23T09:57:15.396Z,100944.27
2023-04-23T09:59:47.883Z,100952.29
2023-04-23T10:02:19.399Z,100946.90
2023-04-23T10:04:52.631Z,100944.33
2023-04-23T10:07:35.496Z,100945.38
2023-04-23T10:10:08.128Z,100938.31
2023-04-23T10:12:53.672Z,100932.48
2023-04-23T10:15:33.807Z,100927.41
2023-04-23T10:18:02.144Z,100921.73
2023-04-23T10:20:31.206Z,100923.78
2023-04-23T10:22:59.692Z,100921.86
2023-04-23T10:25:27.902Z,100925.53
2023-04-23T10:27:56.670Z,100927.13
2023-04-23T10:30:24.956Z,100926.36
2023-04-23T10:32:53.377Z,100925.25
2023-04-23T10:35:21.771Z,100923.41
2023-04-23T10:37:51.493Z,100917.12
2023-04-23T10:40:22.246Z,100916.37
2023-04-23T10:42:50.608Z,100922.09
2023-04-23T10:45:24.715Z,100918.12
2023-04-23T10:47:57.579Z,100921.60
2023-04-23T10:50:27.383Z,100915.52
2023-04-23T10:52:57.368Z,100914.61
2023-04-23T10:55:27.961Z,100910.02
2023-04-23T10:58:04.109Z,100918.79
2023-04-23T11:00:42.099Z,100917.92
2023-04-23T11:03:38.002Z,100916.96
2023-04-23T11:06:37.373Z,100917.62
2023-04-23T11:09:48.967Z,100917.75
2023-04-23T11:12:20.681Z,100914.73
2023-04-23T11:14:52.145Z,100909.61
2023-04-23T11:17:32.670Z,100903.82
2023-04-23T11:20:05.088Z,100904.56
2023-04-23T11:22:37.867Z,100903.64
2023-04-23T11:25:13.784Z,100909.79
2023-04-23T11:27:43.819Z,100908.91
2023-04-23T11:30:21.092Z,100910.25
2023-04-23T11:32:51.115Z,100909.05
2023-04-23T11:35:21.349Z,100904.32
2023-04-23T11:37:49.899Z,100901.38
2023-04-23T11:40:20.412Z,100900.04
2023-04-23T11:42:51.770Z,100899.35
2023-04-23T11:45:24.149Z,100894.37
2023-04-23T11:47:56.156Z,100892.30
2023-04-23T11:50:27.116Z,100890.66
2023-04-23T11:52:55.569Z,100887.91
2023-04-23T11:55:24.029Z,100882.15
2023-04-23T11:57:52.678Z,100881.23
2023-04-23T12:00:23.079Z,100874.74
2023-04-23T12:02:58.977Z,100880.58
2023-04-23T12:05:29.656Z,100879.52
2023-04-23T12:08:08.880Z,100870.73
2023-04-23T12:10:49.376Z,100874.59
2023-04-23T12:13:19.017Z,100874.90
2023-04-23T12:15:48.941Z,100878.40
2023-04-23T12:18:17.839Z,100879.16
2023-04-23T12:20:46.351Z,100881.17
2023-04-23T12:23:14.822Z,100885.66
2023-04-23T12:25:46.814Z,100884.71
2023-04-23T12:28:15.203Z,100883.61
2023-04-23T12:30:44.441Z,100885.23
2023-04-23T12:33:12.776Z,100886.39
2023-04-23T12:35:49.602Z,100886.40
2023-04-23T12:38:26.647Z,100897.79
2023-04-23T12:40:58.344Z,100907.03
2023-04-23T12:43:26.644Z,100922.83
2023-04-23T12:45:56.375Z,100945.40
2023-04-23T12:48:24.956Z,100947.54
2023-04-23T12:50:55.766Z,100959.95
2023-04-23T12:53:24.196Z,100961.77
2023-04-23T12:55:52.598Z,100965.81
2023-04-23T12:58:20.923Z,100960.98
2023-04-23T13:00:58.072Z,100962.33
2023-04-23T13:03:28.777Z,100965.43
2023-04-23T13:05:57.803Z,100972.15
2023-04-23T13:08:26.111Z,100971.56
2023-04-23T13:10:54.515Z,100972.20
2023-04-23T13:13:24.107Z,100975.23
2023-04-23T13:15:52.363Z,100979.44
2023-04-23T13:18:24.540Z,100977.77
2023-04-23T13:20:52.744Z,100965.39
2023-04-23T13:23:23.252Z,100970.48
2023-04-23T13:25:51.521Z,100968.25
2023-04-23T13:28:21.078Z,100962.16
2023-04-23T13:30:49.492Z,100960.16
2023-04-23T13:33:18.033Z,100955.79
2023-04-23T13:35:46.287Z,100957.90
2023-04-23T13:38:14.702Z,100950.10
2023-04-23T13:40:43.445Z,100944.36
2023-04-23T13:43:11.826Z,100945.46
2023-04-23T13:45:40.149Z,100936.90
2023-04-23T13:48:08.577Z,100934.82
2023-04-23T13:50:36.994Z,100939.06
2023-04-23T13:53:05.739Z,100936.93
2023-04-23T13:55:34.926Z,100940.17
2023-04-23T13:58:07.090Z,100935.59
2023-04-23T14:00:38.306Z,100936.16
2023-04-23T14:03:06.864Z,100933.07
2023-04-23T14:05:35.214Z,100929.57
2023-04-23T14:08:03.793Z,100927.52
2023-04-23T14:10:33.081Z,100921.45
2023-04-23T14:13:03.158Z,100923.56
2023-04-23T14:15:31.596Z,100926.38
2023-04-23T14:18:00.241Z,100922.06
2023-04-23T14:20:28.493Z,100920.50
2023-04-23T14:22:58.593Z,100922.55
2023-04-23T14:25:40.719Z,100924.23
2023-04-23T14:28:30.244Z,100924.46
2023-04-23T14:30:59.236Z,100919.04
2023-04-23T14:33:27.552Z,100914.45
2023-04-23T14:35:55.905Z,100913.98
2023-04-23T14:38:23.139Z,100913.69
2023-04-23T14:40:50.126Z,100909.32
2023-04-23T14:43:17.149Z,100910.14
2023-04-23T14:45:44.491Z,100908.19
2023-04-23T14:48:11.626Z,100908.98
2023-04-23T14:50:38.722Z,100909.74
2023-04-23T14:53:07.966Z,100909.68
2023-04-23T14:55:34.974Z,100909.50
2023-04-23T14:58:02.016Z,100910.47
2023-04-23T15:00:29.201Z,100911.74
2023-04-23T15:02:56.989Z,100904.00
2023-04-23T15:05:24.488Z,100907.86
2023-04-23T15:07:53.743Z,100908.70
2023-04-23T15:10:23.180Z,100909.11
2023-04-23T15:12:55.329Z,100910.11
2023-04-23T15:15:41.144Z,100909.01
2023-04-23T15:18:13.788Z,100909.33
2023-04-23T15:20:41.534Z,100906.93
2023-04-23T15:23:09.520Z,100908.45
2023-04-23T15:25:37.202Z,100909.02
2023-04-23T15:28:04.900Z,100906.23
2023-04-23T15:30:31.909Z,100903.59
2023-04-23T15:32:59.201Z,100901.53
2023-04-23T15:35:26.919Z,100900.52
2023-04-23T15:37:54.583Z,100899.77
2023-04-23T15:40:21.756Z,100896.77
2023-04-23T15:42:50.189Z,100896.05
2023-04-23T15:45:17.340Z,100900.58
2023-04-23T15:47:44.554Z,100898.55
2023-04-23T15:50:11.984Z,100898.45
2023-04-23T15:52:39.686Z,100900.62
2023-04-23T15:55:08.175Z,100901.00
2023-04-23T15:57:35.108Z,100905.20
2023-04-23T16:00:02.276Z,100907.97
2023-04-23T16:02:40.634Z,100907.04
2023-04-23T16:05:08.142Z,100909.52
2023-04-23T16:07:35.131Z,100912.72
2023-04-23T16:10:02.639Z,100911.46
2023-04-23T16:12:29.794Z,100913.38
2023-04-23T16:14:56.965Z,100922.14
2023-04-23T16:17:25.223Z,100921.06
2023-04-23T16:19:56.765Z,100920.39
2023-04-23T16:22:26.338Z,100924.35
2023-04-23T16:24:54.167Z,100926.57
2023-04-23T16:27:21.508Z,100926.54
2023-04-23T16:29:48.589Z,100927.96
2023-04-23T16:32:15.643Z,100925.73
2023-04-23T16:34:43.047Z,100922.70
2023-04-23T16:37:16.076Z,100925.48
2023-04-23T16:39:44.164Z,100930.56
2023-04-23T16:42:11.798Z,100933.16
2023-04-23T16:44:39.292Z,100935.32
2023-04-23T16:47:06.848Z,100937.29
2023-04-23T16:49:34.013Z,100937.03
2023-04-23T16:52:02.343Z,100941.21
2023-04-23T16:54:30.920Z,100944.15
2023-04-23T16:56:58.548Z,100945.30
2023-04-23T16:59:25.854Z,100948.19
2023-04-23T17:01:53.421Z,100947.38
2023-04-23T17:04:22.352Z,100948.77
2023-04-23T17:06:49.848Z,100949.06
2023-04-23T17:09:17.388Z,100952.42
2023-04-23T17:11:44.558Z,100953.80
2023-04-23T17:14:12.548Z,100951.80
2023-04-23T17:16:39.922Z,100955.58
2023-04-23T17:19:07.172Z,100955.85
2023-04-23T17:21:34.318Z,100958.74
2023-04-23T17:24:01.909Z,100956.66
2023-04-23T17:26:31.753Z,100959.80
2023-04-23T17:29:00.759Z,100962.05
2023-04-23T17:31:28.181Z,100958.43
2023-04-23T17:33:56.902Z,100963.63
2023-04-23T17:36:26.567Z,100962.31
2023-04-23T17:38:55.620Z,100965.02
2023-04-23T17:44:20.200Z,100967.02
2023-04-23T17:46:48.328Z,100973.88
2023-04-23T17:49:28.555Z,100974.20
2023-04-23T17:58:04.661Z,100977.08
2023-04-23T18:00:41.148Z,100977.08
2023-04-23T18:03:10.021Z,100978.38
2023-04-23T18:05:40.453Z,100977.48
2023-04-23T18:08:27.477Z,100973.81
2023-04-23T18:10:55.796Z,100974.59
2023-04-23T18:13:23.186Z,100970.61
2023-04-23T18:15:50.670Z,100963.73
2023-04-23T18:18:24.917Z,100966.61
2023-04-23T18:20:53.716Z,100961.13
2023-04-23T18:23:23.840Z,100967.05
2023-04-23T18:25:52.847Z,100968.42
2023-04-23T18:28:20.068Z,100967.23
2023-04-23T18:30:47.336Z,100969.60
2023-04-23T18:33:43.769Z,100973.70
2023-04-23T18:36:22.322Z,100977.08
2023-04-23T18:38:50.265Z,100975.56
2023-04-23T18:41:18.099Z,100970.48
2023-04-23T18:43:45.525Z,100973.03
2023-04-23T18:46:12.916Z,100976.14
2023-04-23T18:48:55.830Z,100973.98
2023-04-23T18:51:33.384Z,100966.38
2023-04-23T18:54:02.282Z,100968.71
2023-04-23T18:56:29.679Z,100970.17
2023-04-23T18:58:56.929Z,100971.23
2023-04-23T19:01:28.354Z,100972.14
2023-04-23T19:04:01.245Z,100968.25
2023-04-23T19:06:28.319Z,100963.97
2023-04-23T19:08:56.241Z,100963.84
2023-04-23T19:11:23.448Z,100961.83
2023-04-23T19:13:50.517Z,100960.75
2023-04-23T19:16:20.850Z,100964.88
2023-04-23T19:18:48.368Z,100960.52
2023-04-23T19:21:16.034Z,100958.27
2023-04-23T19:23:43.587Z,100961.70
2023-04-23T19:26:10.778Z,100959.09
2023-04-23T19:28:38.069Z,100959.89
2023-04-23T19:31:05.377Z,100960.99
2023-04-23T19:33:32.618Z,100960.48
2023-04-23T19:35:59.978Z,100961.70
2023-04-23T19:38:27.267Z,100958.89
2023-04-23T19:40:55.423Z,100956.40
2023-04-23T19:43:23.479Z,100958.09
2023-04-23T19:45:50.904Z,100956.59
2023-04-23T19:48:21.300Z,100952.09
2023-04-23T19:50:49.590Z,100951.95
2023-04-23T19:53:16.854Z,100950.21
2023-04-23T19:58:43.142Z,100952.55
2023-04-23T20:01:10.371Z,100953.95
2023-04-23T20:03:39.180Z,100953.05
2023-04-23T20:06:06.462Z,100956.34
2023-04-23T20:08:42.135Z,100950.88
2023-04-23T20:11:10.822Z,100949.06
2023-04-23T20:13:37.914Z,100948.78
2023-04-23T20:16:04.762Z,100945.77
2023-04-23T20:18:35.236Z,100943.87
2023-04-23T20:21:02.283Z,100946.33
2023-04-23T20:23:29.632Z,100944.80
2023-04-23T20:25:56.501Z,100944.31
2023-04-23T20:28:23.442Z,100942.20
2023-04-23T20:30:51.798Z,100942.90
2023-04-23T20:33:19.042Z,100940.03
2023-04-23T20:35:45.971Z,100945.18
2023-04-23T20:38:18.523Z,100941.54
2023-04-23T20:40:47.822Z,100937.54
2023-04-23T20:43:14.670Z,100939.30
2023-04-23T20:45:42.652Z,100937.90
2023-04-23T20:48:09.572Z,100939.06
2023-04-23T20:50:37.416Z,100936.49
2023-04-23T20:53:04.274Z,100940.20
2023-04-23T20:55:31.811Z,100938.14
2023-04-23T20:57:59.058Z,100942.58
2023-04-23T21:00:27.340Z,100937.23
2023-04-23T21:02:54.507Z,100935.00
2023-04-23T21:05:21.568Z,100935.54
2023-04-23T21:07:50.208Z,100938.13
2023-04-23T21:10:17.182Z,100939.41
2023-04-23T21:12:44.465Z,100938.79
2023-04-23T21:15:12.845Z,100934.02
2023-04-23T21:17:40.320Z,100937.35
2023-04-23T21:20:09.128Z,100937.42
2023-04-23T21:22:36.484Z,100939.21
2023-04-23T21:25:04.117Z,100940.48
2023-04-23T21:27:31.052Z,100944.16
2023-04-23T21:30:01.611Z,100941.73
2023-04-23T21:32:29.037Z,100940.08
2023-04-23T21:34:55.918Z,100942.34
2023-04-23T21:37:22.752Z,100938.23
2023-04-23T21:39:49.733Z,100941.15
2023-04-23T21:42:16.542Z,100940.75
2023-04-23T21:44:43.273Z,100937.83
2023-04-23T21:47:10.145Z,100936.48
2023-04-23T21:49:37.092Z,100934.24
2023-04-23T21:52:03.956Z,100934.67
2023-04-23T21:54:31.948Z,100936.45
2023-04-23T21:56:58.846Z,100935.84
2023-04-23T21:59:25.937Z,100934.14
2023-04-23T22:01:52.876Z,100933.20
2023-04-23T22:04:21.987Z,100929.11
2023-04-23T22:06:50.763Z,100934.77
2023-04-23T22:09:18.185Z,100930.54
2023-04-23T22:12:00.773Z,100926.79
2023-04-23T22:14:29.151Z,100926.17
2023-04-23T22:16:58.139Z,100925.05
2023-04-23T22:19:25.662Z,100928.61
2023-04-23T22:21:53.258Z,100929.35
2023-04-23T22:24:20.209Z,100930.36
2023-04-23T22:26:47.132Z,100934.66
2023-04-23T22:29:13.881Z,100934.67
2023-04-23T22:31:40.881Z,100933.10
2023-04-23T22:34:07.680Z,100932.55
2023-04-23T22:36:35.848Z,100930.45
2023-04-23T22:39:04.136Z,100930.98
2023-04-23T22:41:33.768Z,100931.53
2023-04-23T22:44:00.878Z,100926.29
2023-04-23T22:46:28.193Z,100925.10
2023-04-23T22:48:54.959Z,100924.17
2023-04-23T22:51:21.748Z,100923.71
2023-04-23T22:53:48.594Z,100925.55
2023-04-23T22:56:15.412Z,100923.11
2023-04-23T22:58:42.177Z,100923.06
2023-04-23T23:01:09.325Z,100922.71
2023-04-23T23:03:36.702Z,100918.27
2023-04-23T23:06:04.433Z,100916.38
2023-04-23T23:08:31.636Z,100915.95
2023-04-23T23:10:58.440Z,100918.22
2023-04-23T23:13:25.771Z,100917.61
2023-04-23T23:15:52.678Z,100917.41
2023-04-23T23:18:19.574Z,100921.23
2023-04-23T23:20:46.560Z,100918.51
2023-04-23T23:23:13.440Z,100914.22
2023-04-23T23:25:40.457Z,100914.42
2023-04-23T23:28:07.430Z,100913.82
2023-04-23T23:30:34.279Z,100914.24
2023-04-23T23:33:01.287Z,100914.09
2023-04-23T23:35:28.554Z,100916.30
2023-04-23T23:37:56.218Z,100911.84
2023-04-23T23:40:23.158Z,100913.90
2023-04-23T23:42:50.034Z,100914.31
2023-04-23T23:45:16.836Z,100912.00
2023-04-23T23:47:43.678Z,100910.41
2023-04-23T23:50:10.634Z,100912.66
2023-04-23T23:52:37.600Z,100909.21
2023-04-23T23:55:05.005Z,100907.31
2023-04-23T23:57:32.790Z,100910.80
2023-04-23T23:59:59.964Z,100912.20
